Airfield :
LOGIN :

Register | Disclaimer

   EN    FR    IT 

 










Legend :    VFR   Marginal VFR   IFR   Intensive IFR   Very Intensive IFR
Visi :
Ceiling :
>= 8 km
>= 3000ft
5 to 8 km
1000 to 3000 ft
1500m to 5 km
500 to 1000 ft
800 to 1500m
200 to 500 ft
< 800m
< 200 ft
Symbols :   Thunderstorms  Fog  Heavy snow  Heavy precipitations  Wind > 20 kt
SIGMETs :     Misc.  Thunderstorms  Icing  Turbulence  Mountain Waves  Volcanic Ashes







- Airport Elevation : 36 ft
- IATA code : LTQ
- Download approach charts


LFAT - Le Touquet

CURRENT METAR :
  • 221600Z AUTO VRB03KT 4300 BR OVC008/// 09/07 Q1028 TEMPO 7000 NSW

EXPIRED METARs :
  • 221530Z AUTO 30004KT 250V340 3900 BR OVC007/// 08/07 Q1028 TEMPO 7000 NSW
  • 221500Z AUTO 29005KT 260V320 4400 BR OVC008/// 08/07 Q1028 TEMPO 7000 NSW
  • 221430Z AUTO 28004KT 210V330 4100 BR OVC007/// 08/07 Q1028 TEMPO 7000 NSW
  • 221400Z AUTO 29005KT 3800 BR OVC008/// 09/07 Q1029 BECMG 2000 BR OVC003
  • 221330Z AUTO 26003KT 190V320 3600 BR OVC008/// 09/07 Q1029 BECMG 2000 BR OVC003

TAF TAF LFAT
Valid from the 22 at 15:00 until the 23 at 00:00 UTC


221400Z 2215/2224 29005KT 4000 BR OVC008
TEMPO 2216/2218 7000 NSW SCT013
BECMG 2218/2220 2000 BR OVC003
PROB30 2220/2224 0800 FG VV///
ATIS : +33 3 21 06 62 84
No reported NOTAMs for that airfield.



MET'MAP, your aeronautical weather chart ! - Copyright ORBIFLY December 2007 - Disclaimer

ORBIFLY MET'MAP TEAM :

Programming & Development : Alexandra Zaïnal
Concept & Development : Baudouin d'Aumeries
Co-Development & Prog : Marc-Olivier Méhu
Technical & hardware support : Manuel Goepfert

Contact : metmap@orbifly.com




SOURCES & CREDITS :

   NOAA